Time;durP1;ratioP1;P1;durP2;ratioP2;P2;SDS_P1;SDS_P2;PMS_P1;PMS_P2;Temp;Humidity;BMP_temperature;BMP_pressure;BME280_temperature;BME280_humidity;BME280_pressure;Samples;Min_cycle;Max_cycle;Signal;HPM_P1;HPM_P2
2023/03/29 00:00:50;;;;;;;5.37;3.13;;;4.90;48.60;;;;;;6325185;28;20468;-62
2023/03/29 00:03:54;;;;;;;9.10;3.50;;;4.90;48.80;;;;;;6324956;28;21227;-64
2023/03/29 00:07:02;;;;;;;3.43;3.17;;;4.90;49.00;;;;;;6317900;28;20461;-65
2023/03/29 00:10:09;;;;;;;4.17;3.07;;;5.00;49.50;;;;;;6323649;28;20483;-65
2023/03/29 00:13:13;;;;;;;5.00;3.87;;;5.00;49.80;;;;;;6325127;28;20479;-65
2023/03/29 00:16:16;;;;;;;8.13;3.80;;;5.00;50.30;;;;;;6320198;28;20483;-64
2023/03/29 00:19:19;;;;;;;4.37;3.07;;;4.90;50.40;;;;;;6306991;28;20819;-64
2023/03/29 00:22:23;;;;;;;5.93;3.50;;;5.00;50.40;;;;;;6313560;28;20464;-63
2023/03/29 00:25:27;;;;;;;4.20;3.23;;;4.90;50.40;;;;;;6322388;28;20472;-64
2023/03/29 00:28:30;;;;;;;3.73;3.33;;;4.90;50.70;;;;;;6310897;28;20461;-63
2023/03/29 00:31:34;;;;;;;2.93;2.60;;;4.90;50.80;;;;;;6308254;28;20966;-64
2023/03/29 00:34:37;;;;;;;4.13;3.20;;;5.00;50.90;;;;;;6308442;28;20497;-64
2023/03/29 00:37:40;;;;;;;3.40;3.10;;;4.90;50.70;;;;;;6312181;28;20476;-63
2023/03/29 00:40:46;;;;;;;3.00;2.80;;;5.00;50.70;;;;;;6308581;28;20464;-63
2023/03/29 00:43:58;;;;;;;3.27;2.97;;;4.90;50.50;;;;;;6310439;28;20472;-63
2023/03/29 00:47:01;;;;;;;3.33;3.13;;;4.90;50.50;;;;;;6313971;28;20917;-63
2023/03/29 00:50:11;;;;;;;4.90;3.20;;;4.90;50.60;;;;;;6316892;28;20995;-63
2023/03/29 00:53:20;;;;;;;3.10;2.90;;;4.90;50.80;;;;;;6317027;28;20454;-63
2023/03/29 00:56:28;;;;;;;7.40;2.90;;;4.80;50.90;;;;;;6316049;28;20945;-65
2023/03/29 00:59:34;;;;;;;2.80;2.60;;;4.80;51.20;;;;;;6314851;28;20963;-63
2023/03/29 01:02:39;;;;;;;3.87;2.90;;;4.80;51.10;;;;;;6303855;28;20472;-63
2023/03/29 01:05:46;;;;;;;2.40;2.20;;;4.80;51.40;;;;;;6304094;28;20541;-64
2023/03/29 01:08:53;;;;;;;2.87;2.63;;;4.70;51.50;;;;;;6304404;28;20809;-64
2023/03/29 01:12:02;;;;;;;4.50;3.40;;;4.70;52.10;;;;;;6304120;28;20992;-64
2023/03/29 01:15:10;;;;;;;3.30;2.20;;;4.60;52.10;;;;;;6303656;28;20497;-63
2023/03/29 01:18:13;;;;;;;3.00;2.80;;;4.60;52.50;;;;;;6303406;28;20488;-64
2023/03/29 01:21:22;;;;;;;4.33;3.00;;;4.60;52.60;;;;;;6303397;28;21257;-63
2023/03/29 01:24:49;;;;;;;2.83;2.60;;;4.60;53.00;;;;;;6303662;28;20476;-63
2023/03/29 01:27:57;;;;;;;4.83;2.50;;;4.60;52.90;;;;;;6303357;28;20473;-64
2023/03/29 01:31:07;;;;;;;2.63;2.40;;;4.50;52.90;;;;;;6303982;28;20469;-64
2023/03/29 01:34:15;;;;;;;5.17;2.93;;;4.50;53.80;;;;;;6303344;28;20476;-64
2023/03/29 01:37:23;;;;;;;4.63;2.67;;;4.50;53.30;;;;;;6307248;28;20473;-64
2023/03/29 01:40:27;;;;;;;2.60;2.40;;;4.40;53.20;;;;;;6304846;28;20480;-64
2023/03/29 01:43:36;;;;;;;2.60;2.30;;;4.50;53.40;;;;;;6303406;28;20483;-64
2023/03/29 01:46:45;;;;;;;3.27;2.43;;;4.50;53.60;;;;;;6293950;28;20476;-64
2023/03/29 01:49:57;;;;;;;4.27;2.70;;;4.50;53.60;;;;;;6302911;28;20920;-64
2023/03/29 01:53:05;;;;;;;2.40;2.07;;;4.50;53.60;;;;;;6302314;28;20456;-64
2023/03/29 01:56:13;;;;;;;3.70;2.70;;;4.50;53.60;;;;;;6301948;28;20477;-63
2023/03/29 01:59:21;;;;;;;3.07;2.77;;;4.50;53.90;;;;;;6302244;28;20526;-63
2023/03/29 02:02:27;;;;;;;2.73;2.53;;;4.40;54.20;;;;;;6303051;28;20469;-63
2023/03/29 02:05:32;;;;;;;2.83;2.33;;;4.40;54.70;;;;;;6302035;28;20522;-64
2023/03/29 02:08:35;;;;;;;3.63;2.77;;;4.30;55.10;;;;;;6302547;28;20473;-64
2023/03/29 02:11:43;;;;;;;2.80;2.60;;;4.40;55.30;;;;;;6302534;28;20461;-64
2023/03/29 02:14:48;;;;;;;4.70;2.53;;;4.30;55.40;;;;;;6302519;28;20795;-63
2023/03/29 02:17:51;;;;;;;3.40;2.60;;;4.40;56.10;;;;;;6302284;28;20507;-64
2023/03/29 02:20:57;;;;;;;2.60;2.33;;;4.40;56.30;;;;;;6308594;28;20475;-63
2023/03/29 02:24:05;;;;;;;3.07;2.50;;;4.40;56.20;;;;;;6316025;28;20479;-64
2023/03/29 02:27:09;;;;;;;5.00;2.90;;;4.40;56.20;;;;;;6316227;28;20793;-64
2023/03/29 02:30:18;;;;;;;3.07;2.20;;;4.50;56.40;;;;;;6312159;28;20504;-64
2023/03/29 02:33:26;;;;;;;3.53;2.50;;;4.40;56.40;;;;;;6316096;28;20980;-63
2023/03/29 02:36:33;;;;;;;2.50;2.30;;;4.40;56.30;;;;;;6312821;28;20476;-64
2023/03/29 02:39:38;;;;;;;5.03;3.00;;;4.30;56.50;;;;;;6315390;28;20485;-65
2023/03/29 02:42:43;;;;;;;4.87;2.50;;;4.30;56.80;;;;;;6310522;28;20481;-64
2023/03/29 02:45:49;;;;;;;3.80;2.80;;;4.40;56.80;;;;;;6309558;28;20487;-64
2023/03/29 02:48:54;;;;;;;7.23;3.33;;;4.30;56.60;;;;;;6308245;28;20492;-64
2023/03/29 02:52:01;;;;;;;4.03;2.20;;;4.30;56.60;;;;;;6311915;28;20474;-64
2023/03/29 02:55:08;;;;;;;4.40;3.00;;;4.40;56.90;;;;;;6312086;28;20487;-63
2023/03/29 02:58:12;;;;;;;3.50;2.87;;;4.40;57.50;;;;;;6317437;28;20776;-64
2023/03/29 03:01:19;;;;;;;3.40;3.10;;;4.40;57.50;;;;;;6314492;28;20469;-64
2023/03/29 03:04:24;;;;;;;3.70;3.23;;;4.40;58.10;;;;;;6311914;28;20549;-64
2023/03/29 03:07:28;;;;;;;4.20;2.83;;;4.40;58.20;;;;;;6311547;28;20464;-63
2023/03/29 03:10:32;;;;;;;3.00;2.50;;;4.40;58.10;;;;;;6312077;28;20457;-63
2023/03/29 03:13:35;;;;;;;2.73;2.53;;;4.30;58.10;;;;;;6314842;28;20476;-63
2023/03/29 03:16:40;;;;;;;2.70;2.50;;;4.40;58.00;;;;;;6312938;28;20840;-64
2023/03/29 03:19:43;;;;;;;3.37;3.17;;;4.40;57.90;;;;;;6313590;28;20558;-64
2023/03/29 03:22:47;;;;;;;6.53;2.60;;;4.40;57.70;;;;;;6322574;28;20491;-64
2023/03/29 03:25:51;;;;;;;2.90;2.70;;;4.40;57.50;;;;;;6325859;28;20472;-64
2023/03/29 03:28:55;;;;;;;3.20;2.60;;;4.30;57.50;;;;;;6325833;28;20490;-64
2023/03/29 03:31:59;;;;;;;3.37;2.33;;;4.30;57.60;;;;;;6325615;28;20440;-63
2023/03/29 03:35:04;;;;;;;2.63;2.43;;;4.30;57.60;;;;;;6325732;28;21248;-64
2023/03/29 03:38:07;;;;;;;2.70;2.50;;;4.30;57.40;;;;;;6326387;28;20456;-63
2023/03/29 03:41:10;;;;;;;3.37;2.67;;;4.40;57.20;;;;;;6326090;28;20445;-63
2023/03/29 03:44:13;;;;;;;2.00;1.90;;;4.40;56.70;;;;;;6325390;28;20793;-63
2023/03/29 03:47:18;;;;;;;5.20;3.40;;;4.30;56.80;;;;;;6325894;28;20460;-64
2023/03/29 03:50:21;;;;;;;5.43;2.63;;;4.30;56.80;;;;;;6325332;28;20464;-64
2023/03/29 03:53:27;;;;;;;4.00;2.77;;;4.30;56.90;;;;;;6325705;28;20956;-64
2023/03/29 03:56:30;;;;;;;5.47;2.90;;;4.30;57.00;;;;;;6328987;28;20842;-64
2023/03/29 03:59:33;;;;;;;3.00;2.70;;;4.30;57.40;;;;;;6326081;28;20483;-63
2023/03/29 04:02:38;;;;;;;2.60;2.40;;;4.30;57.30;;;;;;6324815;28;20464;-63
2023/03/29 04:05:42;;;;;;;3.57;2.23;;;4.40;57.80;;;;;;6325060;28;21023;-64
2023/03/29 04:08:46;;;;;;;3.07;2.73;;;4.40;57.40;;;;;;6324939;28;20464;-64
2023/03/29 04:11:51;;;;;;;4.33;3.37;;;4.30;57.50;;;;;;6325191;28;20792;-63
2023/03/29 04:14:55;;;;;;;3.20;2.90;;;4.40;57.80;;;;;;6324886;28;20473;-63
2023/03/29 04:18:00;;;;;;;3.60;2.90;;;4.40;57.40;;;;;;6324759;28;20912;-64
2023/03/29 04:21:04;;;;;;;2.40;2.20;;;4.40;57.30;;;;;;6324614;28;20469;-64
2023/03/29 04:24:08;;;;;;;3.00;2.30;;;4.50;57.00;;;;;;6324688;28;20475;-65
2023/03/29 04:27:11;;;;;;;2.23;2.03;;;4.50;56.70;;;;;;6324704;28;20495;-64
2023/03/29 04:30:14;;;;;;;3.23;2.50;;;4.50;56.80;;;;;;6324347;28;20468;-65
2023/03/29 04:33:19;;;;;;;3.70;3.40;;;4.60;56.60;;;;;;6315623;28;20461;-64
2023/03/29 04:36:23;;;;;;;3.67;3.20;;;4.60;56.80;;;;;;6300936;28;20483;-63
2023/03/29 04:39:33;;;;;;;2.60;2.17;;;4.60;57.00;;;;;;6299436;28;20477;-64
2023/03/29 04:42:36;;;;;;;2.97;2.67;;;4.60;57.00;;;;;;6299195;28;20465;-64
2023/03/29 04:45:40;;;;;;;3.90;2.70;;;4.60;57.40;;;;;;6299293;28;20481;-64
2023/03/29 04:48:47;;;;;;;4.77;3.07;;;4.60;57.50;;;;;;6299065;28;20811;-65
2023/03/29 04:51:50;;;;;;;4.30;3.00;;;4.60;57.50;;;;;;6299828;28;20480;-64
2023/03/29 04:54:53;;;;;;;3.03;2.83;;;4.60;57.60;;;;;;6299085;28;20825;-63
2023/03/29 04:57:57;;;;;;;2.90;2.20;;;4.70;57.70;;;;;;6299094;28;20465;-64
2023/03/29 05:01:00;;;;;;;3.30;3.10;;;4.70;57.60;;;;;;6298820;28;20492;-64
2023/03/29 05:04:05;;;;;;;4.20;3.30;;;4.70;57.40;;;;;;6299002;28;20465;-64
2023/03/29 05:07:08;;;;;;;3.73;2.90;;;4.80;57.10;;;;;;6299026;28;20990;-63
2023/03/29 05:10:12;;;;;;;5.87;3.40;;;4.80;57.30;;;;;;6299012;28;20472;-65
2023/03/29 05:13:15;;;;;;;5.60;4.37;;;4.80;57.60;;;;;;6298791;28;20491;-64
2023/03/29 05:16:19;;;;;;;6.37;4.07;;;4.80;57.40;;;;;;6298630;28;20473;-63
2023/03/29 05:19:30;;;;;;;9.67;3.70;;;4.90;57.70;;;;;;6300122;28;20498;-61
2023/03/29 05:22:35;;;;;;;3.83;3.53;;;4.90;57.60;;;;;;6299739;28;20844;-64
2023/03/29 05:25:39;;;;;;;2.87;2.57;;;4.90;57.20;;;;;;6299110;28;20477;-64
2023/03/29 05:28:42;;;;;;;3.63;2.40;;;4.90;57.10;;;;;;6298936;28;20480;-64
2023/03/29 05:31:46;;;;;;;5.13;3.00;;;5.00;57.20;;;;;;6300425;28;20457;-64
2023/03/29 05:34:51;;;;;;;3.63;2.63;;;5.00;57.10;;;;;;6303627;28;20567;-64
2023/03/29 05:37:55;;;;;;;3.07;2.87;;;5.10;56.60;;;;;;6302839;28;20449;-63
2023/03/29 05:40:58;;;;;;;4.73;2.60;;;5.10;57.10;;;;;;6303177;28;20919;-64
2023/03/29 05:44:02;;;;;;;4.73;3.10;;;5.20;56.50;;;;;;6302783;28;20534;-63
2023/03/29 05:47:06;;;;;;;3.40;2.70;;;5.30;56.70;;;;;;6303174;28;20461;-64
2023/03/29 05:50:11;;;;;;;6.27;4.30;;;5.30;56.20;;;;;;6303220;28;20475;-64
2023/03/29 05:53:14;;;;;;;5.33;3.90;;;5.30;56.10;;;;;;6312390;28;20784;-63
2023/03/29 05:56:18;;;;;;;3.40;3.13;;;5.30;56.00;;;;;;6353264;28;20451;-65
2023/03/29 05:59:22;;;;;;;5.37;3.13;;;5.30;55.80;;;;;;6343287;28;20471;-64
2023/03/29 06:02:27;;;;;;;4.63;3.20;;;5.30;56.00;;;;;;6353118;28;20455;-64
2023/03/29 06:05:32;;;;;;;3.90;3.37;;;5.30;56.30;;;;;;6353393;28;20555;-63
2023/03/29 06:08:36;;;;;;;5.07;3.30;;;5.40;56.10;;;;;;6353035;28;20482;-64
2023/03/29 06:11:39;;;;;;;5.00;3.77;;;5.40;56.10;;;;;;6363948;28;20489;-63
2023/03/29 06:14:42;;;;;;;5.60;3.80;;;5.50;56.10;;;;;;6366126;28;20467;-62
2023/03/29 06:17:46;;;;;;;4.47;3.30;;;5.60;56.00;;;;;;6359822;28;20992;-64
2023/03/29 06:20:51;;;;;;;6.57;4.23;;;5.60;55.70;;;;;;6359655;28;20503;-64
2023/03/29 06:23:54;;;;;;;4.53;3.30;;;5.70;55.40;;;;;;6359823;28;20472;-64
2023/03/29 06:26:57;;;;;;;4.23;2.83;;;5.80;55.20;;;;;;6360293;28;20478;-63
2023/03/29 06:30:01;;;;;;;7.40;3.37;;;5.90;54.90;;;;;;6359092;28;20998;-64
2023/03/29 06:33:05;;;;;;;9.97;4.17;;;6.00;54.90;;;;;;6355166;28;20963;-65
2023/03/29 06:36:12;;;;;;;8.87;4.17;;;6.00;54.40;;;;;;6326633;28;20475;-62
2023/03/29 06:39:15;;;;;;;6.30;4.27;;;6.10;54.00;;;;;;6327928;28;20468;-63
2023/03/29 06:42:19;;;;;;;4.47;3.90;;;6.10;53.90;;;;;;6326108;28;20483;-62
2023/03/29 06:45:24;;;;;;;6.87;3.53;;;6.20;54.10;;;;;;6325567;28;20484;-63
2023/03/29 06:48:30;;;;;;;3.90;3.13;;;6.30;54.10;;;;;;6325901;28;20551;-63
2023/03/29 06:51:35;;;;;;;8.93;5.17;;;6.40;53.70;;;;;;6325915;28;20475;-63
2023/03/29 06:54:39;;;;;;;9.27;5.50;;;6.50;53.60;;;;;;6326304;28;20476;-63
2023/03/29 06:57:42;;;;;;;5.73;4.17;;;6.50;52.80;;;;;;6326256;28;20476;-63
2023/03/29 07:00:46;;;;;;;7.20;3.97;;;6.60;52.80;;;;;;6327091;28;20468;-63
2023/03/29 07:03:49;;;;;;;5.10;3.00;;;6.60;52.40;;;;;;6321645;28;20800;-62
2023/03/29 07:07:00;;;;;;;3.80;3.47;;;6.70;52.30;;;;;;6324577;28;20476;-62
2023/03/29 07:10:04;;;;;;;6.80;4.17;;;6.80;52.20;;;;;;6330057;28;20478;-64
2023/03/29 07:13:10;;;;;;;7.67;3.97;;;6.90;52.00;;;;;;6351701;28;20478;-63
2023/03/29 07:16:14;;;;;;;4.83;3.77;;;7.00;51.60;;;;;;6351257;28;20612;-62
2023/03/29 07:19:18;;;;;;;3.43;2.80;;;7.10;51.60;;;;;;6349413;28;20628;-63
2023/03/29 07:22:23;;;;;;;4.00;3.53;;;7.20;51.50;;;;;;6311912;28;20484;-64
2023/03/29 07:25:28;;;;;;;9.67;4.17;;;7.20;51.10;;;;;;6309365;28;20477;-63
2023/03/29 07:28:32;;;;;;;4.13;3.73;;;7.30;50.70;;;;;;6300825;28;20469;-62
2023/03/29 07:31:39;;;;;;;3.40;3.10;;;7.30;51.70;;;;;;6312737;28;20973;-63
2023/03/29 07:34:43;;;;;;;5.20;3.53;;;7.30;53.10;;;;;;6308530;28;20477;-62
2023/03/29 07:37:49;;;;;;;4.00;3.00;;;7.30;51.10;;;;;;6300338;28;20481;-63
2023/03/29 07:40:53;;;;;;;3.43;3.00;;;7.30;51.00;;;;;;6300455;28;20492;-63
2023/03/29 07:43:56;;;;;;;4.00;3.37;;;7.30;50.70;;;;;;6299510;28;20461;-63
2023/03/29 07:47:01;;;;;;;5.80;4.33;;;7.40;50.60;;;;;;6318998;28;20849;-61
2023/03/29 07:50:06;;;;;;;7.53;3.90;;;7.50;50.60;;;;;;6325340;28;20441;-64
2023/03/29 07:53:11;;;;;;;8.40;4.40;;;7.50;50.40;;;;;;6324840;28;20440;-62
2023/03/29 07:56:14;;;;;;;6.53;4.20;;;7.60;50.30;;;;;;6302524;28;20476;-63
2023/03/29 07:59:17;;;;;;;12.40;3.90;;;7.70;50.40;;;;;;6299526;28;20458;-64
2023/03/29 08:02:21;;;;;;;6.27;4.13;;;7.70;50.00;;;;;;6306482;28;20469;-65
2023/03/29 08:05:24;;;;;;;6.77;4.03;;;7.80;50.00;;;;;;6324306;28;20602;-63
2023/03/29 08:08:44;;;;;;;4.20;3.53;;;7.80;49.60;;;;;;6324326;28;20475;-65
2023/03/29 08:11:47;;;;;;;5.10;4.17;;;7.80;48.80;;;;;;6324279;28;20985;-65
2023/03/29 08:14:50;;;;;;;4.00;3.30;;;7.80;48.60;;;;;;6324274;28;20483;-64
2023/03/29 08:17:54;;;;;;;3.97;3.23;;;7.90;48.40;;;;;;6324391;28;20467;-64
2023/03/29 08:20:57;;;;;;;4.77;3.47;;;8.00;48.10;;;;;;6323760;28;20511;-65
2023/03/29 08:24:02;;;;;;;5.60;3.37;;;8.00;47.50;;;;;;6324848;28;20483;-64
2023/03/29 08:27:05;;;;;;;5.10;3.27;;;8.00;46.50;;;;;;6323845;28;20848;-64
2023/03/29 08:30:09;;;;;;;6.80;3.70;;;8.10;46.10;;;;;;6324297;28;20476;-62
2023/03/29 08:33:13;;;;;;;3.90;3.27;;;8.10;45.80;;;;;;6323508;28;20472;-62
2023/03/29 08:36:16;;;;;;;5.00;3.63;;;8.10;46.00;;;;;;6324059;28;20472;-63
2023/03/29 08:39:21;;;;;;;5.50;3.17;;;8.20;45.80;;;;;;6321683;28;20560;-61
2023/03/29 08:42:41;;;;;;;5.60;3.30;;;8.40;46.00;;;;;;6326347;28;20468;-62
2023/03/29 08:45:53;;;;;;;3.60;2.70;;;8.50;46.20;;;;;;6323866;28;20483;-61
2023/03/29 08:49:01;;;;;;;3.43;3.13;;;8.50;45.50;;;;;;6323976;28;20476;-62
2023/03/29 08:52:10;;;;;;;5.90;4.17;;;8.70;45.10;;;;;;6323706;28;20468;-61
2023/03/29 08:55:31;;;;;;;4.60;3.30;;;8.90;44.60;;;;;;6323176;28;20503;-59
2023/03/29 08:58:36;;;;;;;5.17;3.50;;;8.90;44.30;;;;;;6323789;28;20465;-61
2023/03/29 09:01:39;;;;;;;3.63;3.30;;;8.90;44.00;;;;;;6323471;28;20499;-63
2023/03/29 09:04:43;;;;;;;4.20;3.27;;;9.00;43.90;;;;;;6323456;28;20461;-60
2023/03/29 09:07:47;;;;;;;5.77;3.23;;;9.00;44.10;;;;;;6327351;28;20479;-59
2023/03/29 09:11:05;;;;;;;2.70;2.50;;;9.10;43.20;;;;;;6329107;28;20789;-60
2023/03/29 09:14:38;;;;;;;8.83;3.10;;;9.00;43.00;;;;;;6326700;28;20456;-60
2023/03/29 09:17:55;;;;;;;3.93;3.60;;;9.10;43.20;;;;;;6302660;28;20465;-61
2023/03/29 09:21:01;;;;;;;5.63;3.70;;;9.10;43.40;;;;;;6303480;28;20560;-60
2023/03/29 09:24:17;;;;;;;5.00;3.50;;;9.20;43.70;;;;;;6323444;28;20472;-61
2023/03/29 09:27:26;;;;;;;7.03;4.30;;;9.30;44.40;;;;;;6328315;28;20991;-61
2023/03/29 09:30:34;;;;;;;8.00;4.17;;;9.30;44.80;;;;;;6328674;28;20482;-60
2023/03/29 09:33:42;;;;;;;5.00;4.30;;;9.30;45.00;;;;;;6328231;28;20464;-62
2023/03/29 09:36:51;;;;;;;8.70;5.60;;;9.30;45.80;;;;;;6327993;28;20476;-60
2023/03/29 09:39:56;;;;;;;8.00;4.33;;;9.20;46.10;;;;;;6328676;28;20460;-61
2023/03/29 09:43:03;;;;;;;5.67;5.00;;;9.20;46.10;;;;;;6327627;28;20487;-61
2023/03/29 09:46:14;;;;;;;5.90;4.07;;;9.20;45.60;;;;;;6327957;28;20492;-60
2023/03/29 09:49:23;;;;;;;6.03;5.43;;;9.20;45.70;;;;;;6327906;28;20537;-60
2023/03/29 09:52:26;;;;;;;5.20;3.73;;;9.20;45.40;;;;;;6326710;28;20468;-60
2023/03/29 09:55:32;;;;;;;5.57;5.07;;;9.20;45.40;;;;;;6326163;28;20483;-63
2023/03/29 09:58:37;;;;;;;4.33;3.93;;;9.30;45.50;;;;;;6327675;28;21043;-63
2023/03/29 10:01:44;;;;;;;6.37;3.73;;;9.30;46.10;;;;;;6327822;28;20581;-59
2023/03/29 10:04:54;;;;;;;6.97;4.53;;;9.40;46.00;;;;;;6327525;28;20504;-61
2023/03/29 10:08:00;;;;;;;6.40;3.80;;;9.50;45.80;;;;;;6327704;28;20441;-60
2023/03/29 10:11:09;;;;;;;4.23;3.83;;;9.60;45.30;;;;;;6327691;28;20500;-61
2023/03/29 10:14:17;;;;;;;6.07;3.50;;;9.60;44.40;;;;;;6323001;28;20417;-59
2023/03/29 10:17:23;;;;;;;7.27;3.13;;;9.70;44.90;;;;;;6327096;28;20476;-63
2023/03/29 10:20:26;;;;;;;5.43;3.73;;;9.80;43.60;;;;;;6327102;28;20539;-60
2023/03/29 10:23:32;;;;;;;6.93;4.23;;;9.80;43.10;;;;;;6326908;28;20475;-61
2023/03/29 10:26:38;;;;;;;6.47;3.43;;;9.90;42.50;;;;;;6319992;28;20542;-59
2023/03/29 10:29:43;;;;;;;3.67;3.37;;;9.90;42.00;;;;;;6318220;28;20518;-60
2023/03/29 10:32:47;;;;;;;5.43;3.20;;;9.90;41.90;;;;;;6313489;28;20473;-60
2023/03/29 10:35:51;;;;;;;3.80;3.40;;;9.90;42.00;;;;;;6314099;28;21018;-60
2023/03/29 10:38:57;;;;;;;3.63;2.90;;;9.80;41.80;;;;;;6311609;28;20476;-58
2023/03/29 10:42:02;;;;;;;3.33;2.80;;;9.80;41.90;;;;;;6305623;28;20578;-59
2023/03/29 10:45:24;;;;;;;4.63;2.67;;;9.80;41.60;;;;;;6301608;28;20955;-59
2023/03/29 10:48:30;;;;;;;5.40;3.00;;;9.90;41.40;;;;;;6301314;28;20962;-59
2023/03/29 10:51:33;;;;;;;5.27;3.00;;;9.90;40.40;;;;;;6301583;28;20477;-59
2023/03/29 10:54:37;;;;;;;10.77;3.60;;;10.10;39.80;;;;;;6318452;28;20474;-59
2023/03/29 10:57:53;;;;;;;3.80;3.27;;;10.20;40.10;;;;;;6326746;28;20989;-58
2023/03/29 11:00:58;;;;;;;3.50;3.20;;;10.40;39.70;;;;;;6326204;28;20475;-59
2023/03/29 11:04:19;;;;;;;3.90;2.93;;;10.50;38.70;;;;;;6326064;28;20555;-59
2023/03/29 11:07:29;;;;;;;8.03;3.17;;;10.60;38.90;;;;;;6325604;28;20491;-59
2023/03/29 11:10:44;;;;;;;6.90;3.57;;;10.60;38.20;;;;;;6311763;28;20970;-59
2023/03/29 11:13:56;;;;;;;15.23;7.80;;;10.70;38.10;;;;;;6311461;28;20460;-59
2023/03/29 11:17:17;;;;;;;4.57;4.13;;;10.60;37.40;;;;;;6324082;28;20471;-60
2023/03/29 11:20:28;;;;;;;3.13;2.53;;;10.40;37.20;;;;;;6326064;28;20467;-59
2023/03/29 11:23:42;;;;;;;4.30;2.50;;;10.30;37.10;;;;;;6325997;28;20468;-60
2023/03/29 11:26:56;;;;;;;3.23;2.87;;;10.30;37.10;;;;;;6325484;28;21006;-59
2023/03/29 11:30:07;;;;;;;3.63;2.90;;;10.30;36.50;;;;;;6324695;28;20981;-59
2023/03/29 11:33:31;;;;;;;6.27;3.20;;;10.30;36.30;;;;;;6326913;28;20465;-62
2023/03/29 11:36:41;;;;;;;6.23;3.07;;;10.50;36.10;;;;;;6326548;28;20969;-61
2023/03/29 11:39:55;;;;;;;5.23;3.70;;;10.70;36.30;;;;;;6329741;28;20993;-62
2023/03/29 11:43:03;;;;;;;5.20;3.20;;;10.80;36.20;;;;;;6329842;28;20495;-62
2023/03/29 11:46:12;;;;;;;4.03;3.17;;;10.90;35.90;;;;;;6327864;28;20465;-63
2023/03/29 11:49:24;;;;;;;3.70;3.00;;;11.20;35.90;;;;;;6308970;28;20512;-61
2023/03/29 11:52:33;;;;;;;3.20;2.90;;;11.10;35.20;;;;;;6308744;28;20622;-61
2023/03/29 11:55:39;;;;;;;3.20;2.90;;;11.30;35.10;;;;;;6315163;28;20472;-61
2023/03/29 11:58:45;;;;;;;3.60;2.67;;;11.40;34.40;;;;;;6311325;28;20969;-61
2023/03/29 12:01:52;;;;;;;4.57;2.90;;;11.60;34.50;;;;;;6312419;28;20476;-62
2023/03/29 12:05:02;;;;;;;6.30;3.77;;;11.80;33.80;;;;;;6305915;28;20472;-65
2023/03/29 12:08:08;;;;;;;2.70;2.40;;;12.00;32.20;;;;;;6312350;28;20437;-61
2023/03/29 12:11:19;;;;;;;5.37;3.30;;;12.40;32.00;;;;;;6300403;28;20422;-61
2023/03/29 12:14:26;;;;;;;2.40;2.20;;;13.30;32.20;;;;;;6298170;28;20962;-61
2023/03/29 12:17:34;;;;;;;2.80;2.50;;;14.40;30.50;;;;;;6321927;28;21220;-63
2023/03/29 12:20:40;;;;;;;5.67;3.00;;;15.10;29.50;;;;;;6323090;28;20475;-62
2023/03/29 12:23:46;;;;;;;2.63;1.83;;;15.50;28.80;;;;;;6313777;28;20472;-64
2023/03/29 12:27:03;;;;;;;3.53;2.90;;;15.50;27.70;;;;;;6318848;28;20682;-63
2023/03/29 12:30:26;;;;;;;3.07;2.00;;;15.60;27.50;;;;;;6324893;28;20479;-61
2023/03/29 12:34:05;;;;;;;7.50;2.43;;;15.70;27.00;;;;;;6324764;28;20475;-62
2023/03/29 12:37:28;;;;;;;5.00;3.40;;;15.70;26.60;;;;;;6276855;28;20488;-62
2023/03/29 12:40:40;;;;;;;6.50;4.23;;;15.50;27.20;;;;;;6325565;28;20469;-62
2023/03/29 12:43:44;;;;;;;4.43;3.67;;;15.30;27.20;;;;;;6329889;28;20487;-62
2023/03/29 12:46:53;;;;;;;6.57;3.73;;;15.00;27.50;;;;;;6329923;28;20484;-60
2023/03/29 12:49:58;;;;;;;4.20;3.70;;;14.70;27.80;;;;;;6329633;28;20479;-61
2023/03/29 12:53:06;;;;;;;4.30;3.13;;;14.50;28.70;;;;;;6328897;28;20452;-62
2023/03/29 12:56:14;;;;;;;4.73;2.80;;;14.50;29.30;;;;;;6304622;28;20483;-62
2023/03/29 12:59:26;;;;;;;4.43;2.90;;;14.50;29.30;;;;;;6308222;28;20809;-61
2023/03/29 13:02:37;;;;;;;3.90;3.50;;;14.50;29.20;;;;;;6328641;28;20475;-62
2023/03/29 13:05:41;;;;;;;4.47;2.80;;;14.50;29.30;;;;;;6328581;28;20820;-61
2023/03/29 13:08:47;;;;;;;5.30;3.00;;;14.60;29.20;;;;;;6328954;28;20961;-61
2023/03/29 13:11:53;;;;;;;4.30;2.80;;;14.50;29.10;;;;;;6328652;28;20472;-61
2023/03/29 13:14:59;;;;;;;4.30;2.83;;;14.40;29.00;;;;;;6328498;28;20487;-61
2023/03/29 13:18:16;;;;;;;3.10;2.53;;;14.20;28.70;;;;;;6328806;28;20483;-61
2023/03/29 13:21:28;;;;;;;4.07;2.87;;;14.20;28.90;;;;;;6328749;28;20973;-62
2023/03/29 13:25:00;;;;;;;3.20;2.90;;;14.10;29.10;;;;;;6328421;28;20487;-62
2023/03/29 13:28:11;;;;;;;4.20;3.90;;;13.90;29.50;;;;;;6323541;28;20874;-61
2023/03/29 13:31:28;;;;;;;5.33;3.33;;;13.90;29.80;;;;;;6328048;28;21098;-61
2023/03/29 13:34:39;;;;;;;4.07;3.67;;;13.90;29.90;;;;;;6328342;28;20468;-61
2023/03/29 13:37:55;;;;;;;4.50;3.80;;;13.80;30.70;;;;;;6328488;28;21079;-65
2023/03/29 13:41:03;;;;;;;4.80;4.40;;;13.50;31.10;;;;;;6328076;28;20452;-61
2023/03/29 13:44:24;;;;;;;6.60;4.40;;;13.40;31.20;;;;;;6328297;28;20460;-61
2023/03/29 13:48:00;;;;;;;8.30;4.10;;;13.10;31.70;;;;;;6327532;28;20487;-60
2023/03/29 13:51:27;;;;;;;5.30;3.90;;;12.80;32.30;;;;;;6313830;28;20474;-61
2023/03/29 13:54:36;;;;;;;5.83;4.50;;;13.00;32.60;;;;;;6327536;28;20971;-61
2023/03/29 13:57:45;;;;;;;4.70;4.23;;;13.30;32.80;;;;;;6327180;28;20510;-62
2023/03/29 14:00:54;;;;;;;4.80;4.30;;;13.40;32.80;;;;;;6327648;28;20479;-61
2023/03/29 14:03:58;;;;;;;6.40;5.10;;;13.40;32.90;;;;;;6327201;28;20483;-60
2023/03/29 14:07:02;;;;;;;6.50;4.23;;;13.50;33.20;;;;;;6320052;28;20477;-61
2023/03/29 14:10:07;;;;;;;9.20;4.60;;;13.60;32.70;;;;;;6302071;28;20473;-61
2023/03/29 14:13:13;;;;;;;5.73;4.40;;;13.80;33.00;;;;;;6301794;28;20785;-61
2023/03/29 14:16:17;;;;;;;7.03;4.30;;;13.80;32.80;;;;;;6325513;28;20468;-61
2023/03/29 14:19:29;;;;;;;8.13;4.70;;;13.90;32.80;;;;;;6326318;28;20563;-67
2023/03/29 14:22:33;;;;;;;9.00;5.20;;;13.50;32.80;;;;;;6318605;28;20819;-62
2023/03/29 14:25:38;;;;;;;7.13;3.97;;;13.60;33.00;;;;;;6314122;28;20479;-61
2023/03/29 14:28:46;;;;;;;7.80;4.40;;;13.70;32.80;;;;;;6316540;28;20867;-60
2023/03/29 14:31:49;;;;;;;9.83;5.00;;;13.70;32.90;;;;;;6307880;28;20469;-63
2023/03/29 14:34:53;;;;;;;9.13;3.83;;;13.60;33.10;;;;;;6301498;28;20476;-62
2023/03/29 14:37:57;;;;;;;5.17;4.13;;;13.60;33.70;;;;;;6300740;28;20473;-61
2023/03/29 14:41:02;;;;;;;5.53;3.87;;;13.40;34.00;;;;;;6301207;28;20938;-61
2023/03/29 14:44:07;;;;;;;7.43;4.60;;;13.20;34.30;;;;;;6301679;28;20618;-61
2023/03/29 14:47:18;;;;;;;6.20;5.00;;;13.00;34.40;;;;;;6315997;28;20858;-60
2023/03/29 14:50:27;;;;;;;4.80;4.17;;;12.90;35.70;;;;;;6326623;28;20468;-60
2023/03/29 14:53:33;;;;;;;4.83;4.30;;;12.80;36.10;;;;;;6325997;28;20465;-59
2023/03/29 14:56:37;;;;;;;4.90;4.40;;;12.70;36.00;;;;;;6325599;28;20471;-60
2023/03/29 14:59:43;;;;;;;8.00;4.67;;;12.80;35.80;;;;;;6326241;28;20472;-60
2023/03/29 15:02:53;;;;;;;7.27;3.80;;;13.00;35.70;;;;;;6323226;28;20471;-60
2023/03/29 15:06:00;;;;;;;4.10;3.70;;;12.80;35.30;;;;;;6313163;28;20465;-59
2023/03/29 15:09:05;;;;;;;6.77;3.93;;;12.60;34.30;;;;;;6311084;28;20479;-60
2023/03/29 15:12:15;;;;;;;4.33;3.93;;;12.70;34.40;;;;;;6311056;28;20469;-59
2023/03/29 15:15:21;;;;;;;8.53;4.30;;;12.70;35.40;;;;;;6300350;28;20484;-60
2023/03/29 15:18:28;;;;;;;4.40;4.00;;;12.80;35.80;;;;;;6300441;28;20469;-60
2023/03/29 15:21:34;;;;;;;5.93;4.13;;;12.90;35.60;;;;;;6299522;28;20469;-60
2023/03/29 15:24:43;;;;;;;6.10;5.00;;;12.80;35.20;;;;;;6299774;28;20488;-60
2023/03/29 15:27:50;;;;;;;5.00;4.47;;;13.00;35.70;;;;;;6300029;28;20473;-59
2023/03/29 15:30:58;;;;;;;5.60;4.83;;;13.00;35.70;;;;;;6300009;28;20473;-60
2023/03/29 15:34:12;;;;;;;5.27;4.70;;;12.90;35.80;;;;;;6300105;28;20476;-61
2023/03/29 15:37:15;;;;;;;7.60;4.63;;;12.70;35.70;;;;;;6300145;28;20484;-60
2023/03/29 15:40:22;;;;;;;4.90;4.40;;;12.50;35.60;;;;;;6300003;28;20556;-60
2023/03/29 15:43:26;;;;;;;5.00;4.50;;;12.40;35.90;;;;;;6300148;28;20476;-60
2023/03/29 15:46:31;;;;;;;7.97;4.07;;;12.40;36.30;;;;;;6310048;28;20472;-60
2023/03/29 15:49:34;;;;;;;7.10;4.90;;;12.30;36.70;;;;;;6324773;28;20481;-60
2023/03/29 15:52:38;;;;;;;4.83;4.00;;;12.30;36.90;;;;;;6325056;28;20547;-61
2023/03/29 15:55:44;;;;;;;7.53;4.53;;;12.40;37.20;;;;;;6311483;28;20476;-60
2023/03/29 15:58:48;;;;;;;6.70;4.60;;;12.30;37.60;;;;;;6324611;28;20475;-60
2023/03/29 16:01:54;;;;;;;6.80;4.47;;;12.30;37.60;;;;;;6325071;28;20529;-60
2023/03/29 16:04:58;;;;;;;5.40;4.40;;;12.30;37.70;;;;;;6326312;28;20484;-60
2023/03/29 16:08:02;;;;;;;5.07;4.57;;;12.10;38.10;;;;;;6326406;28;20545;-60
2023/03/29 16:11:05;;;;;;;4.67;3.87;;;11.70;38.30;;;;;;6324521;28;20442;-60
2023/03/29 16:14:21;;;;;;;4.70;3.70;;;11.30;39.40;;;;;;6324258;28;20927;-60
2023/03/29 16:17:26;;;;;;;6.93;4.40;;;11.30;39.30;;;;;;6324415;28;20460;-59
2023/03/29 16:20:29;;;;;;;4.63;4.03;;;11.20;39.20;;;;;;6324404;28;20460;-60